createdAt,value
2023-02-11T00:02:25.667Z,19.51
2023-02-11T00:04:52.375Z,17.71
2023-02-11T00:07:19.011Z,19.28
2023-02-11T00:09:45.643Z,19.59
2023-02-11T00:12:12.299Z,18.87
2023-02-11T00:14:38.976Z,18.53
2023-02-11T00:17:05.638Z,18.95
2023-02-11T00:19:32.314Z,18.22
2023-02-11T00:21:58.963Z,19.60
2023-02-11T00:24:25.641Z,18.58
2023-02-11T00:26:52.302Z,19.19
2023-02-11T00:29:19.002Z,18.69
2023-02-11T00:31:45.760Z,19.08
2023-02-11T00:34:12.485Z,19.41
2023-02-11T00:36:39.176Z,19.23
2023-02-11T00:39:05.809Z,19.35
2023-02-11T00:41:32.459Z,18.40
2023-02-11T00:43:59.238Z,18.48
2023-02-11T00:46:25.952Z,18.35
2023-02-11T00:48:52.687Z,19.04
2023-02-11T00:51:19.348Z,18.92
2023-02-11T00:53:46.041Z,19.34
2023-02-11T00:56:12.767Z,20.15
2023-02-11T00:58:39.428Z,19.72
2023-02-11T01:01:06.107Z,19.32
2023-02-11T01:03:32.800Z,20.07
2023-02-11T01:05:59.490Z,19.27
2023-02-11T01:08:26.237Z,19.14
2023-02-11T01:11:00.119Z,19.09
2023-02-11T01:13:27.057Z,18.57
2023-02-11T01:15:53.975Z,16.91
2023-02-11T01:18:20.763Z,17.97
2023-02-11T01:20:47.430Z,17.26
2023-02-11T01:23:14.095Z,16.45
2023-02-11T01:25:40.749Z,16.44
2023-02-11T01:28:07.465Z,15.58
2023-02-11T01:30:34.161Z,15.64
2023-02-11T01:33:00.816Z,14.03
2023-02-11T01:35:27.479Z,14.10
2023-02-11T01:37:54.123Z,15.42
2023-02-11T01:40:20.825Z,16.30
2023-02-11T01:42:49.996Z,16.18
2023-02-11T01:45:45.313Z,16.41
2023-02-11T01:48:16.007Z,16.42
2023-02-11T01:50:42.665Z,15.82
2023-02-11T01:53:09.327Z,15.76
2023-02-11T01:55:35.995Z,15.70
2023-02-11T01:58:02.873Z,13.21
2023-02-11T02:00:38.071Z,11.21
2023-02-11T02:03:13.230Z,11.19
2023-02-11T02:05:51.108Z,11.76
2023-02-11T02:08:27.114Z,12.12
2023-02-11T02:10:53.748Z,13.09
2023-02-11T02:13:20.494Z,13.41
2023-02-11T02:16:04.517Z,14.17
2023-02-11T02:18:37.160Z,13.71
2023-02-11T02:21:38.637Z,14.49
2023-02-11T02:24:38.543Z,15.88
2023-02-11T02:27:32.391Z,16.10
2023-02-11T02:30:27.090Z,16.40
2023-02-11T02:33:21.951Z,16.15
2023-02-11T02:36:13.108Z,15.81
2023-02-11T02:38:51.092Z,16.13
2023-02-11T02:41:19.358Z,16.16
2023-02-11T02:43:48.352Z,15.76
2023-02-11T02:46:21.234Z,15.31
2023-02-11T02:48:48.055Z,16.07
2023-02-11T02:51:39.845Z,15.56
2023-02-11T02:54:31.293Z,16.16
2023-02-11T02:57:36.818Z,14.60
2023-02-11T03:00:12.570Z,15.58
2023-02-11T03:03:05.393Z,17.07
2023-02-11T03:05:48.979Z,16.28
2023-02-11T03:08:34.354Z,15.59
2023-02-11T03:11:01.307Z,16.93
2023-02-11T03:13:30.022Z,15.21
2023-02-11T03:15:57.414Z,16.42
2023-02-11T03:18:26.221Z,16.27
2023-02-11T03:20:53.167Z,17.22
2023-02-11T03:23:34.959Z,16.64
2023-02-11T03:26:25.279Z,16.09
2023-02-11T03:28:56.064Z,15.47
2023-02-11T03:31:37.095Z,15.00
2023-02-11T03:34:31.484Z,16.55
2023-02-11T03:37:02.101Z,16.70
2023-02-11T03:39:44.697Z,15.41
2023-02-11T03:42:11.368Z,15.35
2023-02-11T03:44:41.952Z,15.79
2023-02-11T03:47:09.324Z,15.67
2023-02-11T03:49:36.124Z,16.07
2023-02-11T03:52:02.797Z,15.72
2023-02-11T03:54:30.282Z,16.12
2023-02-11T03:56:58.557Z,15.71
2023-02-11T03:59:25.438Z,14.65
2023-02-11T04:01:52.102Z,14.29
2023-02-11T04:04:18.782Z,14.21
2023-02-11T04:06:45.574Z,15.15
2023-02-11T04:09:12.347Z,14.77
2023-02-11T04:11:39.038Z,14.55
2023-02-11T04:14:05.680Z,14.31
2023-02-11T04:16:32.386Z,14.50
2023-02-11T04:18:59.152Z,14.85
2023-02-11T04:21:25.796Z,14.00
2023-02-11T04:23:52.486Z,14.93
2023-02-11T04:26:19.145Z,14.10
2023-02-11T04:28:45.778Z,13.72
2023-02-11T04:31:12.512Z,13.69
2023-02-11T04:33:39.203Z,12.56
2023-02-11T04:36:06.181Z,13.06
2023-02-11T04:38:32.816Z,13.46
2023-02-11T04:40:59.581Z,14.44
2023-02-11T04:43:26.302Z,13.30
2023-02-11T04:45:53.679Z,13.17
2023-02-11T04:48:20.501Z,13.52
2023-02-11T04:50:47.161Z,13.33
2023-02-11T04:53:13.811Z,13.91
2023-02-11T04:55:40.513Z,13.71
2023-02-11T04:58:07.179Z,14.35
2023-02-11T05:00:34.596Z,12.62
2023-02-11T05:03:01.372Z,13.08
2023-02-11T05:05:28.018Z,12.24
2023-02-11T05:07:54.672Z,11.80
2023-02-11T05:10:21.339Z,12.85
2023-02-11T05:12:48.779Z,13.72
2023-02-11T05:15:15.747Z,13.64
2023-02-11T05:17:42.416Z,13.77
2023-02-11T05:20:09.690Z,13.47
2023-02-11T05:22:36.390Z,14.22
2023-02-11T05:25:03.067Z,13.79
2023-02-11T05:27:29.719Z,13.81
2023-02-11T05:29:56.355Z,13.71
2023-02-11T05:32:23.051Z,12.04
2023-02-11T05:34:49.698Z,11.47
2023-02-11T05:37:16.819Z,9.69
2023-02-11T05:39:43.469Z,9.28
2023-02-11T05:42:10.172Z,10.19
2023-02-11T05:44:36.805Z,11.19
2023-02-11T05:47:03.555Z,12.04
2023-02-11T05:49:30.431Z,12.50
2023-02-11T05:51:57.467Z,11.76
2023-02-11T05:54:25.289Z,12.08
2023-02-11T05:56:51.948Z,11.91
2023-02-11T05:59:18.615Z,12.15
2023-02-11T06:01:45.251Z,12.95
2023-02-11T06:04:11.905Z,13.16
2023-02-11T06:06:38.644Z,13.01
2023-02-11T06:09:05.318Z,13.08
2023-02-11T06:11:32.009Z,13.06
2023-02-11T06:13:58.660Z,13.21
2023-02-11T06:16:25.766Z,13.58
2023-02-11T06:18:53.304Z,13.84
2023-02-11T06:21:21.936Z,14.13
2023-02-11T06:23:49.653Z,13.65
2023-02-11T06:26:22.283Z,14.48
2023-02-11T06:28:49.893Z,13.99
2023-02-11T06:31:17.622Z,13.86
2023-02-11T06:33:46.280Z,14.17
2023-02-11T06:36:16.011Z,14.14
2023-02-11T06:38:43.650Z,14.13
2023-02-11T06:41:14.014Z,14.15
2023-02-11T06:43:42.915Z,13.86
2023-02-11T06:46:09.666Z,13.53
2023-02-11T06:48:38.122Z,14.61
2023-02-11T06:51:06.725Z,15.44
2023-02-11T06:53:38.411Z,15.30
2023-02-11T06:56:06.002Z,16.57
2023-02-11T06:58:32.708Z,16.29
2023-02-11T07:01:00.194Z,15.87
2023-02-11T07:03:28.803Z,16.00
2023-02-11T07:05:56.393Z,16.48
2023-02-11T07:08:24.000Z,15.05
2023-02-11T07:10:51.581Z,15.22
2023-02-11T07:13:18.292Z,14.64
2023-02-11T07:15:45.872Z,14.99
2023-02-11T07:18:14.720Z,15.87
2023-02-11T07:20:41.956Z,15.55
2023-02-11T07:23:09.558Z,15.34
2023-02-11T07:25:37.154Z,14.74
2023-02-11T07:28:03.920Z,14.25
2023-02-11T07:30:30.597Z,14.41
2023-02-11T07:32:57.255Z,13.95
2023-02-11T07:35:23.884Z,13.86
2023-02-11T07:37:50.501Z,14.83
2023-02-11T07:40:17.139Z,14.82
2023-02-11T07:42:43.774Z,15.37
2023-02-11T07:45:10.436Z,15.58
2023-02-11T07:47:37.081Z,16.37
2023-02-11T07:50:03.719Z,16.08
2023-02-11T07:52:33.264Z,15.00
2023-02-11T07:54:59.916Z,14.84
2023-02-11T07:57:26.765Z,14.77
2023-02-11T07:59:53.488Z,14.55
2023-02-11T08:02:20.157Z,14.17
2023-02-11T08:04:47.046Z,14.12
2023-02-11T08:07:17.273Z,13.84
2023-02-11T08:09:43.956Z,13.71
2023-02-11T08:12:10.594Z,14.47
2023-02-11T08:14:37.302Z,12.69
2023-02-11T08:17:03.954Z,13.40
2023-02-11T08:19:30.690Z,13.33
2023-02-11T08:21:57.937Z,13.17
2023-02-11T08:24:24.581Z,12.94
2023-02-11T08:26:51.233Z,12.62
2023-02-11T08:29:17.872Z,11.72
2023-02-11T08:31:45.901Z,12.07
2023-02-11T08:34:12.903Z,11.67
2023-02-11T08:36:39.753Z,12.14
2023-02-11T08:39:18.592Z,13.04
2023-02-11T08:41:47.349Z,12.95
2023-02-11T08:44:14.041Z,13.15
2023-02-11T08:46:40.676Z,12.57
2023-02-11T08:49:07.420Z,13.31
2023-02-11T08:51:34.043Z,12.53
2023-02-11T08:54:00.675Z,12.52
2023-02-11T08:56:27.374Z,12.78
2023-02-11T08:58:54.491Z,12.39
2023-02-11T09:01:26.270Z,12.56
2023-02-11T09:03:53.015Z,12.82
2023-02-11T09:06:19.713Z,12.54
2023-02-11T09:08:47.901Z,12.10
2023-02-11T09:11:14.543Z,12.25
2023-02-11T09:13:41.936Z,12.87
2023-02-11T09:16:09.552Z,13.04
2023-02-11T09:18:36.471Z,12.81
2023-02-11T09:21:04.185Z,12.20
2023-02-11T09:23:30.850Z,12.56
2023-02-11T09:25:57.562Z,11.54
2023-02-11T09:28:24.248Z,12.66
2023-02-11T09:30:51.325Z,11.70
2023-02-11T09:33:18.161Z,11.81
2023-02-11T09:35:44.813Z,11.88
2023-02-11T09:38:11.440Z,13.87
2023-02-11T09:40:42.727Z,15.24
2023-02-11T09:43:19.420Z,14.08
2023-02-11T09:45:46.101Z,15.42
2023-02-11T09:48:17.731Z,14.13
2023-02-11T09:50:50.302Z,13.81
2023-02-11T09:53:27.541Z,13.81
2023-02-11T09:55:55.847Z,13.75
2023-02-11T09:58:27.873Z,14.06
2023-02-11T10:01:08.808Z,14.45
2023-02-11T10:03:35.375Z,15.07
2023-02-11T10:06:13.816Z,14.60
2023-02-11T10:09:02.136Z,14.67
2023-02-11T10:11:53.530Z,13.89
2023-02-11T10:14:29.871Z,14.73
2023-02-11T10:17:18.977Z,16.40
2023-02-11T10:19:54.613Z,15.99
2023-02-11T10:22:36.795Z,17.62
2023-02-11T10:25:16.473Z,17.97
2023-02-11T10:27:43.107Z,18.88
2023-02-11T10:30:18.668Z,18.94
2023-02-11T10:32:48.650Z,19.99
2023-02-11T10:35:20.254Z,21.95
2023-02-11T10:37:47.112Z,21.73
2023-02-11T10:40:17.900Z,19.18
2023-02-11T10:42:47.104Z,18.80
2023-02-11T10:45:31.836Z,19.03
2023-02-11T10:48:00.862Z,23.69
2023-02-11T10:50:31.484Z,19.80
2023-02-11T10:53:17.280Z,19.17
2023-02-11T10:55:57.789Z,19.42
2023-02-11T10:58:45.223Z,19.75
2023-02-11T11:01:23.846Z,21.77
2023-02-11T11:03:52.084Z,23.20
2023-02-11T11:06:31.478Z,25.70
2023-02-11T11:08:58.192Z,28.45
2023-02-11T11:11:25.357Z,27.78
2023-02-11T11:13:57.477Z,28.04
2023-02-11T11:16:32.767Z,33.08
2023-02-11T11:19:08.300Z,32.24
2023-02-11T11:21:45.051Z,31.49
2023-02-11T11:24:34.976Z,34.22
2023-02-11T11:27:02.655Z,33.47
2023-02-11T11:29:29.136Z,32.22
2023-02-11T11:32:03.439Z,34.43
2023-02-11T11:34:32.172Z,33.43
2023-02-11T11:36:59.617Z,34.11
2023-02-11T11:39:32.797Z,34.17
2023-02-11T11:42:24.127Z,35.50
2023-02-11T11:45:04.133Z,35.87
2023-02-11T11:47:53.533Z,34.62
2023-02-11T11:50:26.137Z,34.37
2023-02-11T11:53:00.264Z,34.98
2023-02-11T11:55:45.274Z,34.40
2023-02-11T11:58:21.969Z,36.10
2023-02-11T12:00:53.803Z,35.08
2023-02-11T12:03:44.545Z,35.46
2023-02-11T12:06:21.114Z,37.37
2023-02-11T12:09:02.381Z,39.30
2023-02-11T12:12:07.911Z,39.26
2023-02-11T12:15:04.305Z,38.55
2023-02-11T12:17:38.239Z,39.89
2023-02-11T12:20:16.945Z,39.59
2023-02-11T12:22:56.774Z,39.62
2023-02-11T12:25:46.761Z,39.65
2023-02-11T12:28:20.542Z,37.53
2023-02-11T12:31:21.790Z,41.48
2023-02-11T12:33:57.393Z,40.89
2023-02-11T12:36:23.890Z,41.10
2023-02-11T12:38:50.370Z,39.92
2023-02-11T12:41:32.685Z,39.03
2023-02-11T12:43:59.500Z,42.08
2023-02-11T12:46:43.242Z,39.49
2023-02-11T12:49:34.017Z,41.31
2023-02-11T12:52:08.355Z,40.99
2023-02-11T12:54:36.900Z,41.37
2023-02-11T12:57:03.946Z,38.97
2023-02-11T13:00:07.735Z,40.05
2023-02-11T13:02:36.610Z,39.12
2023-02-11T13:05:31.782Z,37.21
2023-02-11T13:08:12.645Z,36.92
2023-02-11T13:10:41.138Z,39.93
2023-02-11T13:13:37.258Z,38.57
2023-02-11T13:16:06.559Z,40.81
2023-02-11T13:18:54.040Z,38.58
2023-02-11T13:21:34.838Z,36.44
2023-02-11T13:24:07.973Z,35.54
2023-02-11T13:27:02.128Z,34.05
2023-02-11T13:29:50.507Z,35.62
2023-02-11T13:32:17.156Z,34.31
2023-02-11T13:34:43.674Z,35.17
2023-02-11T13:37:36.164Z,36.59
2023-02-11T13:40:10.167Z,35.12
2023-02-11T13:42:50.989Z,34.27
2023-02-11T13:45:18.698Z,33.15
2023-02-11T13:47:45.332Z,35.08
2023-02-11T13:50:21.863Z,32.32
2023-02-11T13:52:48.503Z,32.83
2023-02-11T13:55:21.280Z,32.89
2023-02-11T13:58:05.926Z,32.82
2023-02-11T14:00:35.391Z,35.47
2023-02-11T14:03:11.003Z,32.53
2023-02-11T14:05:37.666Z,32.19
2023-02-11T14:08:09.908Z,34.47
2023-02-11T14:10:42.455Z,32.88
2023-02-11T14:13:25.112Z,34.20
2023-02-11T14:16:06.911Z,34.85
2023-02-11T14:18:37.446Z,33.82
2023-02-11T14:21:11.491Z,35.27
2023-02-11T14:23:38.146Z,33.17
2023-02-11T14:26:20.132Z,32.79
2023-02-11T14:28:54.479Z,34.15
2023-02-11T14:31:26.453Z,33.90
2023-02-11T14:34:21.383Z,31.52
2023-02-11T14:36:54.894Z,30.12
2023-02-11T14:40:00.877Z,31.93
2023-02-11T14:42:28.045Z,29.76
2023-02-11T14:45:02.847Z,29.55
2023-02-11T14:47:34.482Z,30.57
2023-02-11T14:50:01.123Z,29.03
2023-02-11T14:52:29.469Z,29.40
2023-02-11T14:55:17.788Z,30.89
2023-02-11T14:57:44.666Z,32.15
2023-02-11T15:00:16.560Z,31.08
2023-02-11T15:02:43.443Z,29.91
2023-02-11T15:05:21.913Z,31.08
2023-02-11T15:07:50.459Z,28.43
2023-02-11T15:10:19.074Z,29.23
2023-02-11T15:12:45.837Z,30.06
2023-02-11T15:15:12.488Z,28.35
2023-02-11T15:17:39.140Z,28.14
2023-02-11T15:20:06.597Z,28.07
2023-02-11T15:22:33.757Z,27.97
2023-02-11T15:25:08.743Z,26.69
2023-02-11T15:27:44.379Z,25.81
2023-02-11T15:30:23.929Z,24.69
2023-02-11T15:32:51.236Z,25.64
2023-02-11T15:35:18.158Z,25.35
2023-02-11T15:37:44.878Z,27.92
2023-02-11T15:40:12.362Z,27.93
2023-02-11T15:42:52.132Z,25.96
2023-02-11T15:45:19.588Z,25.21
2023-02-11T15:47:51.113Z,26.26
2023-02-11T15:50:31.641Z,26.64
2023-02-11T15:53:00.498Z,25.09
2023-02-11T15:55:27.148Z,22.57
2023-02-11T15:57:55.341Z,22.81
2023-02-11T16:00:23.833Z,25.17
2023-02-11T16:02:50.479Z,24.97
2023-02-11T16:05:31.817Z,24.26
2023-02-11T16:07:58.738Z,23.25
2023-02-11T16:10:29.355Z,23.21
2023-02-11T16:13:05.769Z,22.50
2023-02-11T16:15:35.282Z,22.77
2023-02-11T16:18:02.471Z,21.89
2023-02-11T16:20:29.130Z,22.10
2023-02-11T16:22:55.776Z,21.93
2023-02-11T16:25:23.228Z,22.08
2023-02-11T16:27:51.723Z,22.86
2023-02-11T16:30:23.820Z,21.05
2023-02-11T16:32:50.475Z,21.46
2023-02-11T16:35:17.177Z,22.44
2023-02-11T16:37:43.818Z,21.02
2023-02-11T16:40:11.849Z,20.78
2023-02-11T16:42:38.496Z,21.18
2023-02-11T16:45:06.700Z,21.79
2023-02-11T16:47:35.434Z,21.11
2023-02-11T16:50:02.268Z,20.11
2023-02-11T16:52:28.953Z,21.09
2023-02-11T16:54:55.607Z,19.91
2023-02-11T16:57:23.611Z,21.12
2023-02-11T16:59:50.335Z,21.44
2023-02-11T17:02:22.860Z,22.88
2023-02-11T17:04:50.567Z,23.78
2023-02-11T17:07:17.323Z,24.12
2023-02-11T17:09:44.704Z,26.50
2023-02-11T17:12:11.361Z,26.00
2023-02-11T17:14:38.022Z,24.52
2023-02-11T17:17:04.669Z,27.23
2023-02-11T17:19:31.336Z,27.08
2023-02-11T17:21:58.035Z,27.21
2023-02-11T17:24:24.669Z,29.39
2023-02-11T17:26:51.311Z,31.14
2023-02-11T17:29:22.516Z,31.70
2023-02-11T17:31:49.474Z,27.51
2023-02-11T17:34:16.554Z,28.16
2023-02-11T17:36:43.214Z,30.30
2023-02-11T17:39:09.861Z,36.47
2023-02-11T17:41:37.151Z,39.95
2023-02-11T17:44:04.038Z,41.45
2023-02-11T17:46:30.724Z,40.44
2023-02-11T17:48:58.240Z,36.46
2023-02-11T17:51:27.774Z,31.40
2023-02-11T17:53:54.444Z,31.00
2023-02-11T17:56:21.084Z,31.10
2023-02-11T17:58:47.781Z,29.90
2023-02-11T18:01:14.496Z,29.68
2023-02-11T18:03:41.199Z,37.61
2023-02-11T18:06:07.940Z,43.55
2023-02-11T18:08:34.893Z,48.87
2023-02-11T18:11:01.561Z,39.25
2023-02-11T18:13:28.289Z,34.02
2023-02-11T18:15:55.099Z,47.70
2023-02-11T18:18:21.761Z,48.78
2023-02-11T18:20:58.636Z,47.89
2023-02-11T18:23:25.477Z,46.30
2023-02-11T18:25:52.510Z,41.91
2023-02-11T18:28:19.374Z,39.91
2023-02-11T18:30:46.062Z,39.15
2023-02-11T18:33:12.749Z,40.93
2023-02-11T18:35:39.649Z,42.05
2023-02-11T18:38:06.322Z,43.86
2023-02-11T18:40:34.030Z,41.21
2023-02-11T18:43:00.654Z,40.40
2023-02-11T18:45:27.344Z,40.26
2023-02-11T18:47:54.107Z,43.07
2023-02-11T18:50:20.754Z,40.93
2023-02-11T18:52:47.790Z,42.64
2023-02-11T18:55:14.606Z,46.10
2023-02-11T18:57:41.260Z,45.97
2023-02-11T19:00:08.528Z,43.44
2023-02-11T19:02:35.407Z,43.00
2023-02-11T19:05:02.486Z,42.13
2023-02-11T19:07:29.410Z,44.71
2023-02-11T19:09:56.110Z,45.50
2023-02-11T19:12:22.780Z,43.35
2023-02-11T19:14:49.453Z,42.61
2023-02-11T19:17:16.101Z,48.85
2023-02-11T19:19:42.751Z,48.86
2023-02-11T19:22:10.804Z,45.82
2023-02-11T19:24:37.620Z,44.61
2023-02-11T19:27:04.360Z,43.63
2023-02-11T19:29:30.995Z,42.35
2023-02-11T19:31:57.715Z,40.63
2023-02-11T19:34:24.477Z,39.39
2023-02-11T19:36:51.145Z,37.51
2023-02-11T19:39:17.786Z,36.53
2023-02-11T19:41:44.499Z,35.97
2023-02-11T19:44:11.164Z,36.61
2023-02-11T19:46:38.479Z,35.92
2023-02-11T19:49:05.316Z,36.39
2023-02-11T19:51:31.965Z,40.48
2023-02-11T19:53:58.651Z,40.47
2023-02-11T19:56:25.523Z,41.39
2023-02-11T19:58:52.217Z,42.37
2023-02-11T20:01:19.913Z,41.89
2023-02-11T20:03:50.048Z,45.27
2023-02-11T20:06:20.459Z,45.25
2023-02-11T20:08:47.127Z,42.53
2023-02-11T20:11:16.524Z,42.94
2023-02-11T20:13:43.219Z,42.85
2023-02-11T20:16:12.027Z,41.82
2023-02-11T20:18:39.310Z,41.11
2023-02-11T20:21:07.594Z,40.48
2023-02-11T20:23:34.578Z,43.60
2023-02-11T20:26:12.805Z,41.03
2023-02-11T20:28:39.485Z,39.73
2023-02-11T20:31:06.398Z,39.31
2023-02-11T20:33:33.226Z,39.47
2023-02-11T20:36:01.723Z,41.10
2023-02-11T20:38:28.379Z,40.96
2023-02-11T20:40:55.103Z,42.71
2023-02-11T20:43:21.924Z,41.86
2023-02-11T20:45:48.622Z,42.20
2023-02-11T20:48:15.276Z,41.52
2023-02-11T20:50:41.948Z,38.95
2023-02-11T20:53:08.589Z,37.91
2023-02-11T20:55:37.466Z,38.01
2023-02-11T20:58:05.405Z,39.80
2023-02-11T21:00:32.060Z,38.66
2023-02-11T21:02:58.779Z,39.84
2023-02-11T21:05:25.457Z,39.85
2023-02-11T21:07:53.127Z,38.58
2023-02-11T21:10:19.850Z,39.18
2023-02-11T21:12:49.533Z,39.81
2023-02-11T21:15:16.533Z,38.83
2023-02-11T21:17:43.237Z,39.27
2023-02-11T21:20:10.244Z,38.27
2023-02-11T21:22:36.942Z,37.59
2023-02-11T21:25:03.716Z,37.77
2023-02-11T21:27:30.395Z,37.44
2023-02-11T21:29:57.067Z,36.23
2023-02-11T21:32:23.835Z,35.56
2023-02-11T21:34:50.558Z,36.41
2023-02-11T21:37:17.207Z,35.13
2023-02-11T21:39:43.862Z,33.20
2023-02-11T21:42:10.643Z,34.87
2023-02-11T21:44:37.324Z,34.59
2023-02-11T21:47:04.019Z,34.26
2023-02-11T21:49:30.717Z,37.88
2023-02-11T21:51:57.420Z,35.65
2023-02-11T21:54:24.165Z,34.83
2023-02-11T21:56:50.846Z,34.83
2023-02-11T21:59:17.501Z,34.69
2023-02-11T22:01:44.991Z,34.22
2023-02-11T22:04:11.859Z,31.41
2023-02-11T22:06:38.575Z,31.29
2023-02-11T22:09:06.525Z,28.86
2023-02-11T22:11:33.248Z,26.17
2023-02-11T22:13:59.931Z,27.42
2023-02-11T22:16:27.073Z,26.39
2023-02-11T22:18:53.821Z,27.25
2023-02-11T22:21:21.849Z,27.86
2023-02-11T22:23:48.672Z,27.69
2023-02-11T22:26:17.041Z,26.47
2023-02-11T22:28:43.780Z,24.84
2023-02-11T22:31:15.138Z,25.79
2023-02-11T22:33:41.866Z,23.55
2023-02-11T22:36:12.583Z,24.55
2023-02-11T22:38:39.242Z,23.86
2023-02-11T22:41:07.087Z,23.15
2023-02-11T22:43:33.754Z,22.78
2023-02-11T22:46:01.332Z,23.60
2023-02-11T22:48:28.023Z,23.20
2023-02-11T22:50:54.689Z,22.88
2023-02-11T22:53:21.338Z,24.06
2023-02-11T22:55:48.088Z,23.03
2023-02-11T22:58:14.720Z,21.90
2023-02-11T23:00:41.386Z,23.08
2023-02-11T23:03:08.175Z,23.40
2023-02-11T23:05:41.252Z,26.92
2023-02-11T23:08:08.718Z,26.54
2023-02-11T23:10:36.200Z,25.56
2023-02-11T23:13:03.560Z,23.92
2023-02-11T23:15:30.258Z,23.24
2023-02-11T23:17:56.932Z,23.17
2023-02-11T23:20:23.613Z,22.95
2023-02-11T23:22:50.251Z,23.95
2023-02-11T23:25:16.905Z,23.63
2023-02-11T23:27:43.576Z,23.29
2023-02-11T23:30:10.621Z,23.24
2023-02-11T23:32:40.022Z,22.14
2023-02-11T23:35:06.698Z,22.61
2023-02-11T23:37:33.375Z,22.47
2023-02-11T23:40:00.004Z,22.61
2023-02-11T23:42:26.643Z,21.90
2023-02-11T23:44:53.307Z,21.99
2023-02-11T23:47:19.948Z,22.47
2023-02-11T23:49:46.602Z,23.03
2023-02-11T23:52:13.249Z,23.40
2023-02-11T23:54:40.023Z,23.20
2023-02-11T23:57:06.696Z,22.91
2023-02-11T23:59:33.365Z,22.46
